Time;durP1;ratioP1;P1;durP2;ratioP2;P2;SDS_P1;SDS_P2;PMS_P1;PMS_P2;Temp;Humidity;BMP_temperature;BMP_pressure;BME280_temperature;BME280_humidity;BME280_pressure;Samples;Min_cycle;Max_cycle;Signal;HPM_P1;HPM_P2
2023/01/30 00:02:22;;;;;;;41.70;27.70;;;;;;;3.81;100.00;101781.94;5117160;29;20479;-71
2023/01/30 00:04:53;;;;;;;40.80;29.57;;;;;;;3.85;100.00;101781.03;5113659;29;20641;-70
2023/01/30 00:07:25;;;;;;;42.30;30.67;;;;;;;3.87;100.00;101763.69;5124162;29;20039;-70
2023/01/30 00:09:56;;;;;;;47.80;27.60;;;;;;;3.92;100.00;101758.44;5127400;29;20031;-70
2023/01/30 00:12:27;;;;;;;40.77;29.63;;;;;;;3.91;100.00;101761.91;5128491;29;20036;-71
2023/01/30 00:14:59;;;;;;;36.40;27.70;;;;;;;3.94;100.00;101756.69;5131364;29;20050;-70
2023/01/30 00:17:30;;;;;;;38.33;28.47;;;;;;;3.96;100.00;101765.28;5126405;28;20073;-71
2023/01/30 00:20:02;;;;;;;47.30;29.63;;;;;;;4.00;100.00;101740.16;5128022;29;20031;-70
2023/01/30 00:22:33;;;;;;;40.10;28.03;;;;;;;3.96;100.00;101734.16;5129928;29;20035;-70
2023/01/30 00:25:05;;;;;;;40.93;29.30;;;;;;;4.04;100.00;101747.00;5126593;29;20839;-70
2023/01/30 00:27:36;;;;;;;41.77;27.93;;;;;;;4.03;100.00;101755.69;5129594;28;20622;-70
2023/01/30 00:30:09;;;;;;;38.63;27.63;;;;;;;4.03;100.00;101744.44;5129009;29;20038;-70
2023/01/30 00:32:40;;;;;;;37.20;27.40;;;;;;;4.05;100.00;101753.88;5129826;29;20101;-71
2023/01/30 00:35:11;;;;;;;36.07;26.37;;;;;;;3.95;100.00;101734.19;5128605;28;20446;-71
2023/01/30 00:37:42;;;;;;;37.57;26.07;;;;;;;4.13;100.00;101750.31;5111186;28;20116;-71
2023/01/30 00:40:14;;;;;;;40.30;27.97;;;;;;;4.10;100.00;101741.69;5119693;28;20038;-71
2023/01/30 00:48:29;;;;;;;42.33;29.20;;;;;;;4.20;100.00;101737.22;5131216;29;20035;-70
2023/01/30 00:51:01;;;;;;;39.97;29.30;;;;;;;4.22;100.00;101732.84;5130624;29;20891;-71
2023/01/30 00:53:32;;;;;;;34.97;28.40;;;;;;;4.27;100.00;101732.78;5131162;29;20059;-71
2023/01/30 00:56:04;;;;;;;39.60;28.93;;;;;;;4.26;100.00;101732.81;5130026;29;20024;-71
2023/01/30 00:58:35;;;;;;;43.33;29.50;;;;;;;4.23;100.00;101725.91;5129943;29;20035;-71
2023/01/30 01:01:07;;;;;;;42.87;28.43;;;;;;;4.26;100.00;101715.47;5130338;28;20574;-70
2023/01/30 01:03:38;;;;;;;35.80;29.00;;;;;;;4.27;100.00;101719.81;5130430;28;20372;-70
2023/01/30 01:06:09;;;;;;;42.50;28.93;;;;;;;4.29;100.00;101720.63;5130786;28;20040;-71
2023/01/30 01:08:41;;;;;;;38.17;27.90;;;;;;;4.31;100.00;101724.03;5130350;28;20115;-69
2023/01/30 01:11:23;;;;;;;44.43;28.90;;;;;;;4.30;100.00;101726.66;5128697;28;20040;-70
2023/01/30 01:13:56;;;;;;;37.40;28.67;;;;;;;4.36;100.00;101729.16;5126295;28;20032;-70
2023/01/30 01:16:29;;;;;;;37.87;29.30;;;;;;;4.34;100.00;101713.63;5129176;28;20139;-70
2023/01/30 01:19:01;;;;;;;39.00;27.27;;;;;;;4.34;100.00;101713.63;5127061;28;20028;-71
2023/01/30 01:21:32;;;;;;;35.27;28.77;;;;;;;4.38;100.00;101713.56;5128550;28;20039;-70
2023/01/30 01:24:04;;;;;;;35.10;26.47;;;;;;;4.38;100.00;101716.97;5127221;28;20067;-71
2023/01/30 01:26:35;;;;;;;36.37;27.97;;;;;;;4.39;100.00;101708.34;5128490;28;20097;-71
2023/01/30 01:29:11;;;;;;;36.13;27.13;;;;;;;4.46;100.00;101719.44;5127173;28;20056;-71
2023/01/30 01:31:43;;;;;;;33.80;26.40;;;;;;;4.45;100.00;101705.59;5129652;28;20040;-71
2023/01/30 01:34:14;;;;;;;36.70;27.67;;;;;;;4.47;100.00;101698.66;5131239;28;20429;-71
2023/01/30 01:36:48;;;;;;;40.70;29.50;;;;;;;4.52;100.00;101687.34;5136391;28;20043;-71
2023/01/30 01:39:19;;;;;;;34.73;26.80;;;;;;;4.49;100.00;101698.63;5132422;29;20031;-70
2023/01/30 01:41:50;;;;;;;34.40;26.53;;;;;;;4.55;100.00;101695.91;5128735;28;20672;-71
2023/01/30 01:44:23;;;;;;;41.07;28.97;;;;;;;4.53;100.00;101686.44;5129419;28;20040;-71
2023/01/30 01:46:58;;;;;;;36.93;27.33;;;;;;;4.59;100.00;101687.16;5128567;29;20181;-71
2023/01/30 01:49:35;;;;;;;32.92;26.17;;;;;;;4.60;100.00;101688.88;5129223;29;20042;-71
2023/01/30 01:52:11;;;;;;;37.10;27.47;;;;;;;4.63;100.00;101674.13;5127961;28;20081;-71
2023/01/30 01:54:43;;;;;;;32.33;26.93;;;;;;;4.64;100.00;101657.69;5128981;28;20024;-71
2023/01/30 01:57:19;;;;;;;34.43;26.17;;;;;;;4.66;100.00;101661.09;5128084;29;20374;-70
2023/01/30 02:00:00;;;;;;;37.90;27.10;;;;;;;4.62;100.00;101647.34;5127674;29;20028;-71
2023/01/30 02:02:33;;;;;;;43.53;28.07;;;;;;;4.67;100.00;101648.09;5129154;28;20078;-71
2023/01/30 02:05:05;;;;;;;33.53;26.83;;;;;;;4.67;100.00;101642.03;5128737;29;20039;-71
2023/01/30 02:07:44;;;;;;;38.00;26.57;;;;;;;4.71;100.00;101643.69;5199329;23;20420;-71
2023/01/30 02:10:27;;;;;;;35.47;27.27;;;;;;;4.72;100.00;101645.38;5190009;28;20607;-71
2023/01/30 02:12:59;;;;;;;38.03;27.77;;;;;;;4.71;100.00;101638.50;5188187;28;20038;-71
2023/01/30 02:15:30;;;;;;;35.33;26.10;;;;;;;4.74;100.00;101648.81;5188595;28;20057;-71
2023/01/30 02:18:03;;;;;;;30.70;24.07;;;;;;;4.75;100.00;101640.13;5188062;28;20038;-71
2023/01/30 02:20:57;;;;;;;34.23;24.97;;;;;;;4.79;100.00;101646.09;5189147;28;20037;-71
2023/01/30 02:23:54;;;;;;;33.95;26.63;;;;;;;4.82;100.00;101635.63;5188837;28;20116;-70
2023/01/30 02:26:31;;;;;;;32.33;24.70;;;;;;;4.82;100.00;101627.84;5182340;28;20027;-71
2023/01/30 02:29:08;;;;;;;35.60;26.17;;;;;;;4.84;100.00;101616.56;5187879;28;20030;-71
2023/01/30 02:31:42;;;;;;;34.90;25.33;;;;;;;4.83;100.00;101617.44;5189265;28;20031;-71
2023/01/30 02:34:28;;;;;;;38.05;26.73;;;;;;;4.88;100.00;101614.75;5188664;28;20121;-71
2023/01/30 02:37:21;;;;;;;35.53;26.67;;;;;;;4.92;100.00;101602.56;5188713;28;20126;-71
2023/01/30 02:40:16;;;;;;;40.30;28.50;;;;;;;4.90;100.00;101596.53;5187788;28;20030;-71
2023/01/30 02:43:09;;;;;;;39.03;26.40;;;;;;;4.91;100.00;101608.63;5186549;28;20034;-71
2023/01/30 02:46:09;;;;;;;36.70;25.57;;;;;;;4.90;100.00;101609.53;5189723;28;20035;-70
2023/01/30 02:49:07;;;;;;;37.43;27.17;;;;;;;4.91;100.00;101612.06;5189475;28;20513;-70
2023/01/30 02:51:39;;;;;;;34.97;26.23;;;;;;;4.90;100.00;101615.56;5189139;28;20023;-71
2023/01/30 02:54:12;;;;;;;35.70;27.23;;;;;;;4.84;100.00;101602.72;5189314;28;20045;-71
2023/01/30 02:56:54;;;;;;;46.13;27.63;;;;;;;4.90;100.00;101612.13;5188206;28;20109;-70
2023/01/30 02:59:40;;;;;;;34.93;27.00;;;;;;;4.96;100.00;101606.75;5189142;28;20030;-70
2023/01/30 03:03:05;;;;;;;39.73;27.57;;;;;;;4.95;100.00;101615.47;5184663;28;20105;-70
2023/01/30 03:05:44;;;;;;;35.03;26.77;;;;;;;4.96;100.00;101601.56;5197671;28;20045;-71
2023/01/30 03:08:36;;;;;;;40.50;26.67;;;;;;;4.83;100.00;101564.69;5187993;28;20172;-71
2023/01/30 03:11:10;;;;;;;39.13;29.90;;;;;;;4.95;100.00;101592.09;5187281;28;20125;-71
2023/01/30 03:13:54;;;;;;;35.92;26.88;;;;;;;4.92;100.00;101590.41;5187545;28;20755;-71
2023/01/30 03:16:38;;;;;;;39.05;27.45;;;;;;;4.96;100.00;101580.81;5187378;28;20404;-71
2023/01/30 03:19:11;;;;;;;40.80;29.17;;;;;;;4.95;100.00;101579.97;5185694;28;20026;-70
2023/01/30 03:21:44;;;;;;;40.80;27.93;;;;;;;4.95;100.00;101579.13;5186879;28;20030;-71
2023/01/30 03:24:16;;;;;;;36.80;28.67;;;;;;;4.93;100.00;101578.28;5187306;28;20465;-70
2023/01/30 03:27:01;;;;;;;37.77;29.13;;;;;;;4.88;100.00;101561.97;5187106;28;20073;-70
2023/01/30 03:29:32;;;;;;;37.20;28.48;;;;;;;4.94;100.00;101587.81;5187285;28;20693;-71
2023/01/30 03:32:04;;;;;;;40.30;29.20;;;;;;;4.94;100.00;101575.66;5185579;28;20088;-71
2023/01/30 03:34:35;;;;;;;39.93;29.70;;;;;;;4.92;100.00;101584.38;5187802;28;20030;-71
2023/01/30 03:37:07;;;;;;;40.47;31.13;;;;;;;4.93;100.00;101580.88;5187448;28;20535;-70
2023/01/30 03:39:39;;;;;;;41.33;29.53;;;;;;;4.94;100.00;101574.81;5187695;28;20053;-71
2023/01/30 03:42:10;;;;;;;42.17;30.20;;;;;;;4.93;100.00;101565.31;5187343;28;20096;-71
2023/01/30 03:44:41;;;;;;;46.00;29.43;;;;;;;4.96;100.00;101557.44;5187966;28;20039;-71
2023/01/30 03:47:12;;;;;;;40.90;31.83;;;;;;;4.94;100.00;101557.47;5188092;28;20045;-71
2023/01/30 03:49:44;;;;;;;36.97;29.10;;;;;;;4.92;100.00;101564.44;5186744;28;20042;-70
2023/01/30 03:52:15;;;;;;;39.23;28.77;;;;;;;4.94;100.00;101561.84;5188825;28;20034;-70
2023/01/30 03:54:46;;;;;;;39.23;31.40;;;;;;;4.96;100.00;101565.22;5191295;28;20062;-70
2023/01/30 03:57:17;;;;;;;40.67;29.80;;;;;;;4.94;100.00;101559.25;5190188;28;20034;-71
2023/01/30 03:59:49;;;;;;;42.90;31.53;;;;;;;4.93;100.00;101555.78;5190482;28;20034;-70
2023/01/30 04:02:21;;;;;;;43.80;30.67;;;;;;;4.97;100.00;101565.19;5188969;28;20050;-70
2023/01/30 04:04:53;;;;;;;40.13;30.80;;;;;;;4.96;100.00;101562.63;5191618;28;20057;-70
2023/01/30 04:07:24;;;;;;;38.20;30.63;;;;;;;4.98;100.00;101568.66;5191720;28;20054;-71
2023/01/30 04:09:56;;;;;;;44.73;32.20;;;;;;;4.98;100.00;101568.66;5189139;28;20034;-70
2023/01/30 04:12:27;;;;;;;36.50;30.07;;;;;;;4.99;100.00;101575.56;5190173;28;20077;-70
2023/01/30 04:14:58;;;;;;;36.87;29.63;;;;;;;5.01;100.00;101563.38;5191134;28;20026;-71
2023/01/30 04:17:29;;;;;;;42.37;30.00;;;;;;;5.03;100.00;101560.72;5191863;28;20026;-71
2023/01/30 04:20:01;;;;;;;37.30;30.07;;;;;;;5.06;100.00;101568.47;5190322;28;20034;-69
2023/01/30 04:22:32;;;;;;;43.20;30.80;;;;;;;5.10;100.00;101566.66;5190178;28;20038;-70
2023/01/30 04:25:04;;;;;;;36.53;28.13;;;;;;;5.10;100.00;101557.09;5189636;28;20038;-71
2023/01/30 04:27:35;;;;;;;35.63;30.00;;;;;;;5.11;100.00;101551.03;5188447;28;20034;-71
2023/01/30 04:30:07;;;;;;;40.77;29.97;;;;;;;5.11;100.00;101538.03;5190439;28;20035;-71
2023/01/30 04:32:38;;;;;;;38.97;28.43;;;;;;;5.16;100.00;101556.09;5190963;28;20814;-71
2023/01/30 04:35:10;;;;;;;36.83;26.77;;;;;;;5.17;100.00;101537.00;5190242;28;20515;-71
2023/01/30 04:37:41;;;;;;;37.00;26.00;;;;;;;5.06;100.00;101521.72;5190693;28;20036;-71
2023/01/30 04:40:12;;;;;;;37.13;26.13;;;;;;;5.20;100.00;101543.00;5190172;28;20030;-71
2023/01/30 04:42:44;;;;;;;43.07;27.27;;;;;;;5.25;100.00;101544.63;5189621;28;20030;-71
2023/01/30 04:45:15;;;;;;;34.77;25.33;;;;;;;5.27;100.00;101543.69;5189331;28;20030;-71
2023/01/30 04:47:46;;;;;;;35.67;25.37;;;;;;;5.26;100.00;101538.53;5190977;28;20089;-71
2023/01/30 04:50:18;;;;;;;35.50;23.93;;;;;;;5.30;100.00;101548.81;5191207;28;20031;-71
2023/01/30 04:52:49;;;;;;;30.23;24.30;;;;;;;5.30;100.00;101541.03;5190913;28;20066;-70
2023/01/30 04:55:21;;;;;;;33.40;22.60;;;;;;;5.27;100.00;101546.28;5191162;28;20026;-71
2023/01/30 04:57:52;;;;;;;29.07;19.57;;;;;;;5.33;100.00;101550.47;5190321;28;20403;-70
2023/01/30 05:00:24;;;;;;;29.17;19.70;;;;;;;5.40;100.00;101566.72;5191121;28;20064;-71
2023/01/30 05:02:55;;;;;;;28.27;18.47;;;;;;;5.42;100.00;101551.97;5190332;28;20092;-71
2023/01/30 05:05:27;;;;;;;25.23;17.17;;;;;;;5.44;100.00;101552.78;5191192;28;20038;-71
2023/01/30 05:07:59;;;;;;;23.60;16.60;;;;;;;5.45;100.00;101552.75;5190474;28;20054;-70
2023/01/30 05:10:30;;;;;;;23.40;15.17;;;;;;;5.49;100.00;101555.25;5189785;28;20041;-71
2023/01/30 05:13:05;;;;;;;30.23;14.70;;;;;;;5.52;100.00;101557.75;5188384;28;20435;-71
2023/01/30 05:15:38;;;;;;;25.60;14.83;;;;;;;5.54;100.00;101559.44;5189259;28;20031;-71
2023/01/30 05:18:09;;;;;;;19.73;13.87;;;;;;;5.54;100.00;101566.38;5190195;28;20531;-71
2023/01/30 05:20:40;;;;;;;24.10;13.27;;;;;;;5.53;100.00;101560.31;5189318;28;20037;-70
2023/01/30 05:23:11;;;;;;;24.47;12.87;;;;;;;5.58;100.00;101555.00;5187587;28;20030;-70
2023/01/30 05:25:43;;;;;;;33.53;13.77;;;;;;;5.59;100.00;101550.66;5189180;28;20038;-71
2023/01/30 05:28:14;;;;;;;27.93;12.57;;;;;;;5.63;100.00;101539.28;5189399;28;20117;-71
2023/01/30 05:30:45;;;;;;;20.77;11.27;;;;;;;5.63;100.00;101554.88;5189481;28;20046;-70
2023/01/30 05:33:17;;;;;;;21.73;10.97;;;;;;;5.61;100.00;101547.13;5190400;28;20042;-71
2023/01/30 05:35:49;;;;;;;19.10;10.23;;;;;;;5.64;100.00;101556.56;5188740;28;20042;-71
2023/01/30 05:38:21;;;;;;;25.10;9.90;;;;;;;5.64;100.00;101549.63;5190019;28;20030;-70
2023/01/30 05:41:00;;;;;;;23.53;10.30;;;;;;;5.66;100.00;101554.78;5189092;28;20026;-70
2023/01/30 05:43:33;;;;;;;21.17;9.13;;;;;;;5.67;100.00;101552.13;5189748;28;20043;-71
2023/01/30 05:46:05;;;;;;;28.57;10.93;;;;;;;5.67;100.00;101540.91;5190210;28;20026;-71
2023/01/30 05:48:36;;;;;;;24.50;9.40;;;;;;;5.69;100.00;101549.50;5189848;28;20096;-71
2023/01/30 05:51:19;;;;;;;16.00;8.13;;;;;;;5.73;100.00;101540.72;5188838;28;20030;-71
2023/01/30 05:53:51;;;;;;;24.17;8.03;;;;;;;5.74;100.00;101545.03;5189212;28;20030;-71
2023/01/30 05:56:22;;;;;;;19.63;8.70;;;;;;;5.77;100.00;101544.09;5189024;28;20060;-70
2023/01/30 05:58:55;;;;;;;17.67;7.67;;;;;;;5.79;100.00;101545.78;5188934;28;20399;-70
2023/01/30 06:01:28;;;;;;;20.77;8.10;;;;;;;5.79;100.00;101556.16;5188867;28;20083;-70
2023/01/30 06:03:59;;;;;;;18.03;7.77;;;;;;;5.76;100.00;101555.41;5188514;28;20353;-70
2023/01/30 06:06:30;;;;;;;23.47;8.03;;;;;;;5.79;100.00;101579.56;5188481;28;20041;-70
2023/01/30 06:09:03;;;;;;;18.83;8.03;;;;;;;5.77;100.00;101572.69;5187850;28;20053;-70
2023/01/30 06:11:34;;;;;;;15.33;8.03;;;;;;;5.76;100.00;101576.19;5187107;28;20719;-70
2023/01/30 06:14:06;;;;;;;17.27;7.57;;;;;;;5.79;100.00;101576.09;5186751;28;20121;-70
2023/01/30 06:16:37;;;;;;;21.73;8.10;;;;;;;5.76;100.00;101556.22;5187044;28;20042;-71
2023/01/30 06:19:08;;;;;;;22.70;6.43;;;;;;;5.79;100.00;101574.38;5189313;28;20026;-71
2023/01/30 06:21:39;;;;;;;17.00;5.67;;;;;;;5.82;100.00;101573.41;5187990;28;20023;-70
2023/01/30 06:24:11;;;;;;;16.03;6.03;;;;;;;5.84;100.00;101583.75;5188948;28;20109;-71
2023/01/30 06:26:42;;;;;;;20.93;5.80;;;;;;;5.85;100.00;101577.69;5187575;28;20018;-75
2023/01/30 06:29:13;;;;;;;16.00;5.30;;;;;;;5.86;100.00;101576.78;5189323;28;20030;-74
2023/01/30 06:31:46;;;;;;;15.70;5.23;;;;;;;5.85;100.00;101590.69;5187917;28;20411;-73
2023/01/30 06:34:17;;;;;;;15.67;6.00;;;;;;;5.84;100.00;101599.38;5187886;28;20031;-73
2023/01/30 06:36:48;;;;;;;21.50;5.97;;;;;;;5.81;100.00;101610.72;5187659;28;20018;-71
2023/01/30 06:39:20;;;;;;;13.87;4.17;;;;;;;5.84;100.00;101604.56;5188555;28;20050;-71
2023/01/30 06:41:51;;;;;;;16.47;5.17;;;;;;;5.82;100.00;101612.41;5184845;28;20026;-72
2023/01/30 06:44:22;;;;;;;18.70;5.57;;;;;;;5.74;100.00;101601.38;5189542;28;20459;-72
2023/01/30 06:46:53;;;;;;;22.13;4.33;;;;;;;5.71;100.00;101594.50;5188583;28;20029;-72
2023/01/30 06:49:25;;;;;;;19.13;4.80;;;;;;;5.70;100.00;101608.41;5189563;28;20101;-71
2023/01/30 06:51:56;;;;;;;17.13;4.43;;;;;;;5.66;100.00;101618.03;5189428;28;20030;-72
2023/01/30 06:54:27;;;;;;;18.00;4.63;;;;;;;5.64;100.00;101624.13;5189005;28;20026;-71
2023/01/30 06:56:58;;;;;;;16.07;4.53;;;;;;;5.56;100.00;101620.03;5187569;28;20029;-71
2023/01/30 06:59:30;;;;;;;26.27;5.23;;;;;;;5.56;100.00;101607.03;5190984;28;20081;-71
2023/01/30 07:02:01;;;;;;;20.53;4.10;;;;;;;5.54;100.00;101595.81;5188505;28;20046;-71
2023/01/30 07:04:32;;;;;;;14.57;4.67;;;;;;;5.56;100.00;101586.25;5189244;28;20030;-71
2023/01/30 07:07:04;;;;;;;16.33;3.97;;;;;;;5.54;100.00;101581.97;5187910;28;20732;-71
2023/01/30 07:09:35;;;;;;;19.17;3.80;;;;;;;5.49;100.00;101595.09;5187913;28;20072;-70
2023/01/30 07:12:06;;;;;;;16.47;3.37;;;;;;;5.44;100.00;101599.53;5187962;28;20034;-70
2023/01/30 07:14:37;;;;;;;11.73;3.33;;;;;;;5.45;100.00;101611.63;5188881;28;20041;-69
2023/01/30 07:17:09;;;;;;;14.13;3.60;;;;;;;5.46;100.00;101610.75;5188138;28;20080;-70
2023/01/30 07:19:41;;;;;;;14.63;3.70;;;;;;;5.44;100.00;101625.53;5188156;28;20129;-70
2023/01/30 07:22:12;;;;;;;19.13;4.00;;;;;;;5.43;100.00;101616.00;5187597;28;20034;-70
2023/01/30 07:24:43;;;;;;;12.90;3.70;;;;;;;5.42;100.00;101619.50;5187454;28;20692;-70
2023/01/30 07:27:15;;;;;;;15.37;2.97;;;;;;;5.41;100.00;101621.25;5188221;28;20469;-70
2023/01/30 07:29:46;;;;;;;16.57;4.27;;;;;;;5.37;100.00;101622.25;5190711;28;20552;-75
2023/01/30 07:32:18;;;;;;;18.03;3.53;;;;;;;5.38;100.00;101625.66;5191281;28;20057;-70
2023/01/30 07:34:50;;;;;;;21.93;4.17;;;;;;;5.31;100.00;101627.56;5189397;28;20092;-69
2023/01/30 07:37:21;;;;;;;17.83;3.87;;;;;;;5.31;100.00;101628.44;5190501;28;20026;-69
2023/01/30 07:39:52;;;;;;;13.33;3.83;;;;;;;5.27;100.00;101642.38;5190071;28;20380;-70
2023/01/30 07:42:24;;;;;;;15.17;3.60;;;;;;;5.32;100.00;101647.47;5190379;28;20049;-69
2023/01/30 07:44:55;;;;;;;16.63;4.77;;;;;;;5.22;100.00;101640.81;5190907;28;20034;-70
2023/01/30 07:47:26;;;;;;;25.73;4.37;;;;;;;5.26;100.00;101651.06;5190053;28;20113;-70
2023/01/30 07:49:57;;;;;;;27.83;4.47;;;;;;;5.28;100.00;101646.69;5188915;28;20023;-70
2023/01/30 07:52:29;;;;;;;27.30;5.73;;;;;;;5.31;100.00;101648.34;5177727;28;20060;-70
2023/01/30 07:55:00;;;;;;;20.73;4.13;;;;;;;5.25;100.00;101641.59;5188829;28;20119;-70
2023/01/30 07:57:31;;;;;;;19.23;3.87;;;;;;;5.29;100.00;101644.94;5187224;28;20030;-70
2023/01/30 08:00:04;;;;;;;15.10;3.77;;;;;;;5.29;100.00;101645.78;5188994;28;20115;-70
2023/01/30 08:02:35;;;;;;;20.93;5.17;;;;;;;5.19;100.00;101633.94;5188798;28;20034;-69
2023/01/30 08:05:07;;;;;;;21.93;4.10;;;;;;;5.27;100.00;101655.38;5189635;28;20034;-70
2023/01/30 08:07:38;;;;;;;19.83;3.97;;;;;;;5.27;100.00;101652.75;5187815;28;20079;-69
2023/01/30 08:10:10;;;;;;;20.53;4.53;;;;;;;5.26;100.00;101651.06;5187827;28;20504;-69
2023/01/30 08:12:41;;;;;;;19.27;3.87;;;;;;;5.28;100.00;101658.81;5186347;28;20026;-69
2023/01/30 08:15:13;;;;;;;18.90;3.93;;;;;;;5.26;100.00;101665.78;5189911;28;20026;-72
2023/01/30 08:17:52;;;;;;;27.20;4.80;;;;;;;5.25;100.00;101675.34;5189480;28;20031;-69
2023/01/30 08:20:25;;;;;;;23.57;4.90;;;;;;;5.12;100.00;101660.94;5189788;28;20066;-69
2023/01/30 08:22:58;;;;;;;27.13;5.70;;;;;;;5.22;100.00;101678.00;5190544;28;20042;-74
2023/01/30 08:25:29;;;;;;;20.00;4.27;;;;;;;5.24;100.00;101678.81;5188449;28;20396;-73
2023/01/30 08:28:01;;;;;;;23.33;5.33;;;;;;;5.21;100.00;101686.69;5190653;28;20035;-76
2023/01/30 08:30:33;;;;;;;26.57;5.27;;;;;;;5.22;100.00;101690.97;5191183;28;20026;-71
2023/01/30 08:33:04;;;;;;;26.17;4.93;;;;;;;5.21;100.00;101691.88;5186350;28;20038;-70
2023/01/30 08:35:35;;;;;;;24.20;4.70;;;;;;;5.19;100.00;101684.13;5190202;28;20661;-70
2023/01/30 08:38:07;;;;;;;19.63;4.20;;;;;;;5.20;100.00;101678.03;5188491;28;20031;-75
2023/01/30 08:40:39;;;;;;;28.10;4.93;;;;;;;5.22;100.00;101675.41;5189557;28;20058;-75
2023/01/30 08:43:10;;;;;;;18.67;4.63;;;;;;;5.16;100.00;101691.13;5190928;28;20064;-72
2023/01/30 08:45:41;;;;;;;25.87;4.50;;;;;;;5.28;100.00;101695.19;5190244;28;20030;-71
2023/01/30 08:48:13;;;;;;;20.23;4.20;;;;;;;5.27;100.00;101696.91;5190094;28;20054;-71
2023/01/30 08:50:44;;;;;;;22.40;5.70;;;;;;;5.19;100.00;101689.31;5189760;28;20038;-71
2023/01/30 08:53:15;;;;;;;24.47;6.10;;;;;;;5.22;100.00;101690.16;5190367;28;20497;-70
2023/01/30 08:55:51;;;;;;;20.10;4.30;;;;;;;5.30;100.00;101694.28;5189958;28;20077;-69
2023/01/30 08:58:22;;;;;;;17.43;4.73;;;;;;;5.20;100.00;101687.59;5190009;28;20023;-69
2023/01/30 09:00:54;;;;;;;19.03;3.97;;;;;;;5.21;100.00;101702.28;5190239;28;20084;-69
2023/01/30 09:03:25;;;;;;;26.30;4.43;;;;;;;5.30;100.00;101703.81;5190099;28;20034;-69
2023/01/30 09:05:56;;;;;;;23.93;5.73;;;;;;;5.38;100.00;101706.19;5189174;28;20555;-69
2023/01/30 09:08:27;;;;;;;19.43;4.47;;;;;;;5.42;100.00;101723.44;5190474;28;20492;-70
2023/01/30 09:11:00;;;;;;;23.23;3.90;;;;;;;5.42;100.00;101718.25;5188125;28;20481;-73
2023/01/30 09:13:33;;;;;;;18.70;4.33;;;;;;;5.41;100.00;101730.38;5189407;28;20069;-73
2023/01/30 09:16:05;;;;;;;30.23;4.97;;;;;;;5.47;100.00;101728.50;5189242;28;20107;-72
2023/01/30 09:18:41;;;;;;;15.43;4.20;;;;;;;5.53;100.00;101730.97;5188729;28;20041;-70
2023/01/30 09:21:13;;;;;;;18.40;4.23;;;;;;;5.52;100.00;101735.31;5189020;28;20623;-70
2023/01/30 09:23:44;;;;;;;26.63;5.27;;;;;;;5.59;100.00;101737.75;5189563;28;20078;-69
2023/01/30 09:26:15;;;;;;;24.07;5.20;;;;;;;5.61;100.00;101747.22;5187592;28;20038;-72
2023/01/30 09:28:47;;;;;;;16.57;5.20;;;;;;;5.63;100.00;101734.19;5188446;28;20038;-72
2023/01/30 09:31:18;;;;;;;20.10;4.50;;;;;;;5.56;100.00;101736.09;5189022;28;20117;-72
2023/01/30 09:33:49;;;;;;;18.23;4.93;;;;;;;5.66;100.00;101741.91;5188808;28;20030;-71
2023/01/30 09:36:20;;;;;;;18.37;4.13;;;;;;;5.71;100.00;101745.25;5189659;28;20027;-72
2023/01/30 09:38:52;;;;;;;12.97;3.30;;;;;;;5.74;100.00;101739.97;5189159;28;20026;-72
2023/01/30 09:41:26;;;;;;;25.97;5.07;;;;;;;5.79;100.00;101758.94;5187952;28;20029;-70
2023/01/30 09:44:06;;;;;;;22.52;3.33;;;;;;;5.85;100.00;101762.28;5189083;28;20066;-71
2023/01/30 09:46:59;;;;;;;25.67;4.53;;;;;;;5.94;100.00;101756.81;5185327;28;20026;-71
2023/01/30 09:49:48;;;;;;;22.97;5.17;;;;;;;6.07;100.00;101751.34;5188373;28;20065;-73
2023/01/30 09:52:29;;;;;;;27.13;5.53;;;;;;;6.04;100.00;101768.69;5189398;28;20034;-69
2023/01/30 09:55:15;;;;;;;18.57;4.40;;;;;;;6.05;100.00;101770.47;5189260;28;20034;-69
2023/01/30 09:57:48;;;;;;;22.33;4.93;;;;;;;6.11;100.00;101764.22;5189425;28;20486;-69
2023/01/30 10:00:22;;;;;;;18.13;3.80;;;;;;;6.19;100.00;101774.44;5190178;28;20026;-69
2023/01/30 10:03:07;;;;;;;20.60;5.03;;;;;;;6.37;100.00;101777.44;5189628;28;20041;-69
2023/01/30 10:05:46;;;;;;;24.00;5.35;;;;;;;6.35;100.00;101768.81;5190150;28;20037;-69
2023/01/30 10:08:44;;;;;;;27.13;4.33;;;;;;;6.43;100.00;101779.00;5189742;28;20795;-69
2023/01/30 10:11:46;;;;;;;18.20;3.87;;;;;;;6.52;100.00;101769.22;5188238;28;20034;-69
2023/01/30 10:14:43;;;;;;;20.37;4.43;;;;;;;6.52;100.00;101781.38;5188966;28;20507;-69
2023/01/30 10:17:33;;;;;;;22.70;5.20;;;;;;;6.50;100.00;101781.41;5189705;28;20034;-69
2023/01/30 10:20:48;;;;;;;16.60;3.47;;;;;;;6.47;100.00;101771.09;5189177;28;20062;-69
2023/01/30 10:23:25;;;;;;;20.50;4.20;;;;;;;6.47;100.00;101785.84;5271556;28;20823;-69
2023/01/30 10:26:04;;;;;;;20.67;5.27;;;;;;;6.48;100.00;101780.59;5191968;28;20369;-69
2023/01/30 10:28:46;;;;;;;19.97;5.53;;;;;;;6.49;100.00;101787.50;5189139;28;20034;-69
2023/01/30 10:31:21;;;;;;;18.23;3.77;;;;;;;6.45;100.00;101788.50;5188513;28;20060;-69
2023/01/30 10:33:59;;;;;;;17.53;3.77;;;;;;;6.53;100.00;101790.88;5188995;28;20026;-69
2023/01/30 10:36:59;;;;;;;18.53;4.43;;;;;;;6.58;100.00;101793.38;5188968;28;20042;-69
2023/01/30 10:39:41;;;;;;;16.47;3.43;;;;;;;6.57;100.00;101786.44;5189140;28;20034;-69
2023/01/30 10:42:18;;;;;;;18.47;3.90;;;;;;;6.51;100.00;101793.53;5188561;28;20026;-69
2023/01/30 10:44:51;;;;;;;15.47;3.77;;;;;;;6.58;100.00;101798.56;5188222;28;20037;-69
2023/01/30 10:47:40;;;;;;;23.67;4.23;;;;;;;6.60;100.00;101796.75;5189227;28;20109;-69
2023/01/30 10:50:21;;;;;;;20.83;3.80;;;;;;;6.61;100.00;101804.56;5188188;28;20076;-69
2023/01/30 10:53:06;;;;;;;15.70;3.53;;;;;;;6.61;100.00;101814.09;5168598;28;20096;-68
2023/01/30 10:56:14;;;;;;;19.35;4.25;;;;;;;6.59;100.00;101806.34;5167413;28;20170;-68
2023/01/30 10:59:02;;;;;;;20.90;4.87;;;;;;;6.57;100.00;101800.31;5172633;28;20073;-69
2023/01/30 11:01:43;;;;;;;19.93;4.90;;;;;;;6.41;100.00;101786.84;5171220;28;20366;-71
2023/01/30 11:04:30;;;;;;;21.57;4.23;;;;;;;6.57;100.00;101807.25;5190234;28;20617;-70
2023/01/30 11:07:02;;;;;;;21.57;5.03;;;;;;;6.55;100.00;101817.72;5191406;28;20053;-71
2023/01/30 11:09:46;;;;;;;17.93;4.30;;;;;;;6.56;100.00;101813.38;5192322;28;20084;-72
2023/01/30 11:12:17;;;;;;;25.53;4.43;;;;;;;6.51;100.00;101816.94;5190937;28;20019;-74
2023/01/30 11:14:59;;;;;;;18.83;4.13;;;;;;;6.51;100.00;101816.13;5192127;28;20026;-72
2023/01/30 11:17:37;;;;;;;21.00;4.53;;;;;;;6.38;100.00;101803.44;5190848;28;20022;-71
2023/01/30 11:20:19;;;;;;;20.30;3.93;;;;;;;6.54;100.00;101814.25;5191292;28;20465;-71
2023/01/30 11:23:04;;;;;;;23.17;5.23;;;;;;;6.49;100.00;101816.13;5188912;28;20520;-72
2023/01/30 11:25:50;;;;;;;19.57;4.83;;;;;;;6.52;100.00;101812.59;5190344;28;20071;-73
2023/01/30 11:28:24;;;;;;;18.87;4.50;;;;;;;6.54;100.00;101808.22;5191051;28;20027;-68
2023/01/30 11:30:58;;;;;;;16.53;5.03;;;;;;;6.60;100.00;101814.97;5191624;28;20392;-69
2023/01/30 11:33:31;;;;;;;;;;;;;;;6.74;100.00;101810.25;5192206;28;20038;-70
2023/01/30 11:36:06;;;;;;;19.13;3.73;;;;;;;6.68;100.00;101806.97;5190804;28;20597;-70
2023/01/30 11:38:54;;;;;;;20.93;4.07;;;;;;;6.74;100.00;101818.06;5190783;28;20031;-70
2023/01/30 11:41:26;;;;;;;14.10;3.40;;;;;;;6.70;100.00;101811.25;5190128;28;20038;-70
2023/01/30 11:44:02;;;;;;;20.80;5.00;;;;;;;6.74;100.00;101815.47;5191141;28;20023;-70
2023/01/30 11:46:37;;;;;;;16.63;4.03;;;;;;;6.73;100.00;101818.97;5188603;28;20117;-71
2023/01/30 11:49:14;;;;;;;21.33;4.97;;;;;;;6.78;100.00;101818.84;5187498;28;20056;-73
2023/01/30 11:51:47;;;;;;;24.87;5.77;;;;;;;6.74;100.00;101825.88;5188070;28;20091;-74
2023/01/30 11:54:27;;;;;;;22.03;4.90;;;;;;;6.78;100.00;101826.66;5189802;28;20035;-74
2023/01/30 11:57:02;;;;;;;23.70;3.90;;;;;;;6.65;100.00;101808.75;5188103;28;20064;-77